Time;durP1;ratioP1;P1;durP2;ratioP2;P2;SDS_P1;SDS_P2;PMS_P1;PMS_P2;Temp;Humidity;BMP_temperature;BMP_pressure;BME280_temperature;BME280_humidity;BME280_pressure;Samples;Min_cycle;Max_cycle;Signal;HPM_P1;HPM_P2
2022/01/28 00:00:18;;;;;;;22.60;10.52;;;;;;;0.02;100.00;102902.94;5021468;28;20146;-82
2022/01/28 00:03:06;;;;;;;32.42;12.57;;;;;;;0.00;100.00;102921.50;5011834;28;20048;-82
2022/01/28 00:05:36;;;;;;;22.15;9.98;;;;;;;-0.04;100.00;102925.16;5051244;28;20025;-82
2022/01/28 00:08:03;;;;;;;27.73;12.65;;;;;;;-0.04;100.00;102928.66;5042541;28;20035;-83
2022/01/28 00:10:29;;;;;;;26.10;12.35;;;;;;;-0.07;100.00;102934.06;5047348;28;20024;-81
2022/01/28 00:39:51;;;;;;;26.08;11.10;;;;;;;-0.56;100.00;102904.00;5033220;28;20047;-83
2022/01/28 00:42:17;;;;;;;30.13;11.85;;;;;;;-0.49;100.00;102902.03;5065590;28;20032;-81
2022/01/28 00:44:43;;;;;;;30.45;12.15;;;;;;;-0.50;100.00;102901.19;5031919;28;20048;-80
2022/01/28 00:47:09;;;;;;;32.40;12.48;;;;;;;-0.55;100.00;102897.84;5031915;28;20041;-81
2022/01/28 00:49:34;;;;;;;33.67;12.93;;;;;;;-0.57;100.00;102897.00;5015650;28;20037;-82
2022/01/28 00:52:00;;;;;;;29.35;11.52;;;;;;;-0.53;100.00;102905.69;5045506;28;20117;-83
2022/01/28 00:54:26;;;;;;;22.17;10.38;;;;;;;-0.52;100.00;102903.00;5014437;28;20047;-80
2022/01/28 00:56:51;;;;;;;23.65;12.25;;;;;;;-0.55;100.00;102896.97;5069173;28;20036;-83
2022/01/28 00:59:17;;;;;;;37.70;12.60;;;;;;;-0.54;100.00;102904.84;5033022;28;20037;-83
2022/01/28 01:01:43;;;;;;;19.92;9.18;;;;;;;-0.56;100.00;102893.44;5030011;28;20048;-83
2022/01/28 01:04:09;;;;;;;31.38;11.73;;;;;;;-0.70;100.00;102879.84;5031867;28;20043;-82
2022/01/28 01:06:34;;;;;;;32.97;11.88;;;;;;;-0.57;100.00;102899.66;5064402;28;20111;-83
2022/01/28 01:09:00;;;;;;;32.15;12.27;;;;;;;-0.55;100.00;102889.91;5035344;28;20036;-83
2022/01/28 01:11:27;;;;;;;25.13;10.88;;;;;;;-0.48;100.00;102888.78;5049931;28;20133;-81
2022/01/28 01:13:53;;;;;;;22.73;11.85;;;;;;;-0.31;100.00;102890.00;5030262;28;20044;-83
2022/01/28 01:16:30;;;;;;;33.80;11.88;;;;;;;-0.31;100.00;102871.47;5051614;28;20032;-81
2022/01/28 01:21:37;;;;;;;20.27;9.63;;;;;;;-0.34;100.00;102866.31;5049033;28;20047;-83
2022/01/28 01:24:03;;;;;;;20.48;10.32;;;;;;;-0.14;100.00;102866.44;5044721;28;20032;-84
2022/01/28 01:26:34;;;;;;;16.55;8.43;;;;;;;-0.02;100.00;102870.44;5047801;28;20029;-82
2022/01/28 01:29:01;;;;;;;24.95;11.20;;;;;;;0.04;100.00;102875.50;5047468;28;20028;-83
2022/01/28 01:31:27;;;;;;;16.05;7.63;;;;;;;0.00;100.00;102873.91;5030545;28;20100;-82
2022/01/28 01:34:04;;;;;;;30.73;11.80;;;;;;;-0.08;100.00;102863.59;5047581;28;20077;-84
2022/01/28 01:36:30;;;;;;;25.77;11.77;;;;;;;-0.38;100.00;102839.09;5017994;28;20108;-82
2022/01/28 01:38:56;;;;;;;26.90;11.15;;;;;;;-0.26;100.00;102877.47;5067006;28;20570;-83
2022/01/28 01:41:42;;;;;;;34.65;12.25;;;;;;;-0.33;100.00;102889.16;5035384;28;20032;-82
2022/01/28 01:44:30;;;;;;;26.05;11.27;;;;;;;-0.48;100.00;102898.47;5049327;28;21667;-81
2022/01/28 01:52:01;;;;;;;29.60;10.27;;;;;;;-0.62;100.00;102885.72;5035625;28;20026;-81
2022/01/28 01:52:49;;;;;;;21.45;9.77;;;;;;;-0.90;100.00;102838.22;5036660;28;20039;-83
2022/01/28 01:55:14;;;;;;;24.48;10.77;;;;;;;-0.67;100.00;102872.66;5014932;28;20040;-83
2022/01/28 01:57:40;;;;;;;23.67;12.52;;;;;;;-0.64;100.00;102855.84;5016567;28;20033;-81
2022/01/28 02:00:07;;;;;;;23.95;11.35;;;;;;;-0.75;100.00;102816.59;5028764;28;20032;-80
2022/01/28 02:02:33;;;;;;;16.77;8.48;;;;;;;-0.33;100.00;102838.94;5064848;28;20032;-84
2022/01/28 02:04:58;;;;;;;31.10;15.27;;;;;;;-0.06;100.00;102859.09;5030814;28;20059;-81
2022/01/28 02:07:25;;;;;;;34.53;13.73;;;;;;;-0.02;100.00;102859.88;5059315;28;20036;-82
2022/01/28 02:09:51;;;;;;;27.08;11.98;;;;;;;0.03;100.00;102850.00;5030245;28;20110;-81
2022/01/28 02:12:16;;;;;;;28.48;12.02;;;;;;;-0.06;100.00;102831.78;5030289;28;20032;-81
2022/01/28 02:14:42;;;;;;;30.20;11.63;;;;;;;-0.04;100.00;102867.84;5015827;28;20032;-85
2022/01/28 02:17:08;;;;;;;21.65;11.30;;;;;;;-0.19;100.00;102862.25;5009713;28;20488;-83
2022/01/28 02:19:34;;;;;;;24.80;11.23;;;;;;;-0.37;100.00;102858.47;5044726;28;20036;-84
2022/01/28 02:22:00;;;;;;;25.45;10.90;;;;;;;-0.60;100.00;102841.63;5032749;28;20059;-82
2022/01/28 02:24:32;;;;;;;24.90;12.27;;;;;;;-0.58;100.00;102854.78;5010312;28;20493;-84
2022/01/28 02:26:58;;;;;;;27.67;11.25;;;;;;;-0.64;100.00;102855.00;5045238;28;20040;-80
2022/01/28 02:29:29;;;;;;;26.98;11.15;;;;;;;-0.74;100.00;102850.03;5042898;28;20038;-82
2022/01/28 02:31:56;;;;;;;26.52;10.43;;;;;;;-0.80;100.00;102834.38;5030789;28;20031;-81
2022/01/28 02:34:22;;;;;;;27.08;11.98;;;;;;;-0.65;100.00;102854.13;5050730;28;20032;-82
2022/01/28 02:36:50;;;;;;;22.20;10.50;;;;;;;-0.58;100.00;102846.84;5058758;28;20036;-84
2022/01/28 02:39:16;;;;;;;38.92;13.45;;;;;;;-0.62;100.00;102845.25;5031711;28;20040;-83
2022/01/28 02:41:46;;;;;;;26.42;11.07;;;;;;;-0.63;100.00;102849.66;5036272;28;20037;-82
2022/01/28 02:44:48;;;;;;;21.02;11.27;;;;;;;-0.62;100.00;102848.75;5019578;28;20041;-84
2022/01/28 02:47:04;;;;;;;15.75;7.93;;;;;;;-0.67;100.00;102825.09;5032422;28;20918;-84
2022/01/28 02:49:36;;;;;;;25.08;12.38;;;;;;;-0.51;100.00;102837.81;5033997;28;20081;-81
2022/01/28 02:52:03;;;;;;;24.60;10.68;;;;;;;-0.47;100.00;102827.06;5041820;28;20036;-83
2022/01/28 02:54:29;;;;;;;22.20;11.30;;;;;;;-0.30;100.00;102836.19;5055987;28;20031;-82
2022/01/28 02:57:01;;;;;;;22.20;9.82;;;;;;;-0.24;100.00;102828.03;5045175;28;20511;-82
2022/01/28 02:59:26;;;;;;;25.42;10.65;;;;;;;-0.16;100.00;102818.06;5030132;28;20029;-84
2022/01/28 03:01:52;;;;;;;22.77;9.60;;;;;;;-0.01;100.00;102822.78;5014329;28;20029;-85
2022/01/28 03:04:50;;;;;;;18.30;9.30;;;;;;;0.03;100.00;102804.13;5046341;28;20025;-81
2022/01/28 03:07:06;;;;;;;24.88;10.02;;;;;;;0.22;100.00;102824.56;5062654;28;20040;-83
2022/01/28 03:12:21;;;;;;;23.65;10.25;;;;;;;0.54;100.00;102816.31;5021900;28;20036;-84
2022/01/28 03:20:30;;;;;;;21.15;9.55;;;;;;;0.32;100.00;102805.69;5013739;28;20045;-82
2022/01/28 03:22:51;;;;;;;23.35;9.15;;;;;;;0.18;100.00;102811.50;5031923;28;20040;-83
2022/01/28 03:25:16;;;;;;;20.50;10.55;;;;;;;0.03;100.00;102820.00;5012344;28;20378;-84
2022/01/28 03:30:11;;;;;;;23.23;9.85;;;;;;;-0.27;100.00;102807.00;5046240;28;20029;-84
2022/01/28 03:32:37;;;;;;;2.20;2.08;;;;;;;-0.26;100.00;102824.59;5017414;28;20123;-83
2022/01/28 03:35:05;;;;;;;21.58;9.88;;;;;;;-0.20;100.00;102823.50;5029881;28;20032;-82
2022/01/28 03:37:30;;;;;;;24.90;9.23;;;;;;;-0.22;100.00;102816.47;5044996;28;20083;-80
2022/01/28 03:39:56;;;;;;;20.23;9.30;;;;;;;-0.10;100.00;102807.25;5051100;28;20481;-83
2022/01/28 03:42:22;;;;;;;21.40;9.20;;;;;;;0.09;100.00;102803.94;5033937;28;20635;-83
2022/01/28 03:44:47;;;;;;;26.33;9.80;;;;;;;0.42;100.00;102809.69;5048840;28;20118;-82
2022/01/28 03:47:13;;;;;;;15.05;7.22;;;;;;;0.72;100.00;102798.84;5055803;28;20501;-83
2022/01/28 03:49:39;;;;;;;23.40;9.50;;;;;;;0.84;100.00;102796.53;5016748;28;20040;-81
2022/01/28 03:52:04;;;;;;;24.77;11.55;;;;;;;1.06;100.00;102806.25;5053118;28;20123;-83
2022/01/28 03:54:30;;;;;;;20.60;10.18;;;;;;;1.23;100.00;102801.09;5052330;28;20119;-81
2022/01/28 03:56:56;;;;;;;22.95;8.75;;;;;;;1.23;100.00;102779.91;5073707;28;20466;-81
2022/01/28 03:59:21;;;;;;;15.18;6.45;;;;;;;1.44;100.00;102795.81;5046788;28;20033;-83
2022/01/28 04:01:48;;;;;;;26.90;10.40;;;;;;;1.50;100.00;102787.59;5035857;28;20037;-83
2022/01/28 04:12:33;;;;;;;22.58;8.32;;;;;;;1.82;100.00;102791.44;5041503;28;20071;-83
2022/01/28 04:15:08;;;;;;;23.13;9.00;;;;;;;1.82;100.00;102783.50;5044092;28;20044;-83
2022/01/28 04:17:34;;;;;;;30.13;9.05;;;;;;;1.80;100.00;102763.28;5034120;28;20950;-83
2022/01/28 04:20:00;;;;;;;28.17;9.00;;;;;;;1.91;100.00;102772.47;5048092;28;20604;-81
2022/01/28 04:22:25;;;;;;;24.75;9.85;;;;;;;1.96;100.00;102780.25;5033489;28;20032;-84
2022/01/28 04:24:54;;;;;;;24.10;9.23;;;;;;;2.07;100.00;102777.09;5029055;28;20029;-83
2022/01/28 04:27:20;;;;;;;24.30;8.30;;;;;;;2.10;100.00;102764.53;5028146;28;20043;-84
2022/01/28 04:29:46;;;;;;;22.17;8.98;;;;;;;2.17;100.00;102768.63;5027530;28;20032;-82
2022/01/28 04:32:11;;;;;;;16.50;7.63;;;;;;;2.15;100.00;102749.25;5050989;28;20071;-82
2022/01/28 04:34:37;;;;;;;11.10;4.57;;;;;;;2.30;100.00;102752.09;5053419;28;20051;-81
2022/01/28 04:40:13;;;;;;;27.42;10.73;;;;;;;2.39;100.00;102743.72;5014643;28;20052;-81
2022/01/28 05:06:35;;;;;;;26.70;9.43;;;;;;;3.11;100.00;102718.00;5045028;28;20037;-82
2022/01/28 05:10:16;;;;;;;29.30;10.52;;;;;;;3.33;100.00;102753.16;5046491;28;20036;-83
2022/01/28 05:25:50;;;;;;;29.77;10.73;;;;;;;3.71;100.00;102750.28;5050771;28;20039;-80
2022/01/28 05:28:20;;;;;;;28.95;10.38;;;;;;;3.65;100.00;102722.22;5065751;28;20474;-82
2022/01/28 05:30:48;;;;;;;28.42;8.63;;;;;;;3.77;100.00;102738.44;5033050;28;20044;-83
2022/01/28 05:33:13;;;;;;;27.35;9.68;;;;;;;3.64;100.00;102727.59;5034026;28;20045;-82
2022/01/28 05:35:39;;;;;;;26.38;9.55;;;;;;;3.63;100.00;102721.44;5013704;28;20048;-82
2022/01/28 05:38:04;;;;;;;20.92;7.50;;;;;;;3.58;100.00;102720.81;5028809;28;20855;-84
2022/01/28 05:40:30;;;;;;;28.70;8.70;;;;;;;3.50;100.00;102715.06;5049237;28;20637;-82
2022/01/28 05:42:56;;;;;;;19.90;8.50;;;;;;;3.49;100.00;102730.16;5040686;28;20479;-81
2022/01/28 05:45:21;;;;;;;24.95;8.75;;;;;;;3.34;100.00;102725.63;5027984;28;20037;-85
2022/01/28 05:47:47;;;;;;;25.58;10.05;;;;;;;3.28;100.00;102717.97;5026536;28;20044;-82
2022/01/28 05:50:12;;;;;;;20.05;7.95;;;;;;;3.46;100.00;102735.59;5047305;28;20120;-84
2022/01/28 05:52:38;;;;;;;19.20;8.35;;;;;;;3.53;100.00;102731.69;5032340;28;20119;-84
2022/01/28 05:55:05;;;;;;;18.50;7.95;;;;;;;3.59;100.00;102725.19;5009900;28;20131;-84
2022/01/28 05:57:30;;;;;;;25.70;8.60;;;;;;;3.69;100.00;102721.09;5032667;28;20032;-84
2022/01/28 05:59:56;;;;;;;23.30;8.57;;;;;;;3.76;100.00;102718.97;5031995;28;20033;-81
2022/01/28 06:02:21;;;;;;;22.63;9.23;;;;;;;3.72;100.00;102701.44;5043618;28;20060;-82
2022/01/28 06:04:47;;;;;;;21.15;8.32;;;;;;;3.85;100.00;102710.47;5027751;28;20024;-82
2022/01/28 06:07:13;;;;;;;23.17;9.27;;;;;;;4.00;100.00;102726.56;5035387;28;20499;-81
2022/01/28 06:09:39;;;;;;;24.83;9.30;;;;;;;4.00;100.00;102716.75;5026432;28;20114;-80
2022/01/28 06:12:05;;;;;;;23.92;8.25;;;;;;;4.16;100.00;102733.59;5033026;28;20037;-81
2022/01/28 06:14:30;;;;;;;25.90;8.95;;;;;;;4.24;100.00;102725.19;5013242;28;20032;-81
2022/01/28 06:16:57;;;;;;;18.58;8.52;;;;;;;4.29;100.00;102719.59;5029642;28;20074;-81
2022/01/28 06:19:23;;;;;;;18.60;7.38;;;;;;;4.36;100.00;102724.47;5006895;28;20386;-82
2022/01/28 06:21:49;;;;;;;18.05;6.55;;;;;;;4.38;100.00;102727.91;5033353;28;20493;-82
2022/01/28 06:24:14;;;;;;;23.33;8.55;;;;;;;4.37;100.00;102722.69;5046546;28;20028;-81
2022/01/28 06:26:40;;;;;;;25.70;8.82;;;;;;;4.45;100.00;102735.56;5024987;28;20075;-80
2022/01/28 06:29:06;;;;;;;23.63;7.85;;;;;;;4.49;100.00;102721.97;5028129;28;20086;-81
2022/01/28 06:31:32;;;;;;;27.02;8.85;;;;;;;4.58;100.00;102729.44;5040353;28;20041;-82
2022/01/28 06:33:58;;;;;;;22.92;8.82;;;;;;;4.56;100.00;102722.50;5028451;28;20074;-82
2022/01/28 06:36:24;;;;;;;26.23;8.32;;;;;;;4.69;100.00;102733.31;5030228;28;20036;-82
2022/01/28 06:38:49;;;;;;;22.80;7.93;;;;;;;4.75;100.00;102730.28;5015751;28;20111;-79
2022/01/28 06:41:15;;;;;;;24.58;9.13;;;;;;;4.72;100.00;102723.31;5035500;28;20031;-81
2022/01/28 06:43:41;;;;;;;24.38;7.97;;;;;;;4.69;100.00;102704.84;5021471;28;20048;-80
2022/01/28 06:46:07;;;;;;;21.00;7.88;;;;;;;4.81;100.00;102711.25;5026229;28;20040;-80
2022/01/28 06:48:32;;;;;;;23.70;8.68;;;;;;;4.83;100.00;102704.88;5009310;28;20037;-81
2022/01/28 06:50:58;;;;;;;18.60;6.95;;;;;;;4.87;100.00;102716.22;5026376;28;20074;-82
2022/01/28 06:53:24;;;;;;;25.75;8.70;;;;;;;4.85;100.00;102704.78;5027629;28;20646;-81
2022/01/28 06:55:49;;;;;;;25.08;8.57;;;;;;;4.79;100.00;102697.13;5032538;28;20455;-80
2022/01/28 06:58:15;;;;;;;23.40;8.43;;;;;;;4.89;100.00;102708.13;5017480;28;20025;-81
2022/01/28 07:00:41;;;;;;;21.73;7.10;;;;;;;4.92;100.00;102692.84;5033441;28;20032;-81
2022/01/28 07:03:08;;;;;;;22.38;7.25;;;;;;;5.08;100.00;102708.75;5072594;28;20028;-80
2022/01/28 07:05:34;;;;;;;19.65;6.68;;;;;;;5.19;100.00;102706.31;5056488;28;20086;-81
2022/01/28 07:08:00;;;;;;;21.58;8.10;;;;;;;5.25;100.00;102691.72;5056395;28;20052;-80
2022/01/28 07:10:26;;;;;;;22.73;6.93;;;;;;;5.40;100.00;102705.91;5019866;28;20389;-81
2022/01/28 07:12:54;;;;;;;17.33;7.50;;;;;;;5.43;100.00;102698.59;5053570;28;20036;-81
2022/01/28 07:15:25;;;;;;;19.15;6.70;;;;;;;5.44;100.00;102689.63;5036567;28;20290;-81
2022/01/28 07:17:51;;;;;;;19.05;5.80;;;;;;;5.53;100.00;102693.56;5053645;28;20025;-82
2022/01/28 07:20:17;;;;;;;23.33;10.40;;;;;;;5.58;100.00;102670.09;5036574;28;20031;-80
2022/01/28 07:22:43;;;;;;;28.92;12.23;;;;;;;5.71;100.00;102667.50;5046673;28;20024;-84
2022/01/28 07:25:09;;;;;;;26.17;13.38;;;;;;;5.91;100.00;102666.25;5046445;28;20485;-81
2022/01/28 07:27:35;;;;;;;27.30;12.38;;;;;;;6.00;100.00;102654.16;5040603;28;20492;-82
2022/01/28 07:30:00;;;;;;;26.65;10.07;;;;;;;6.15;100.00;102659.34;5049507;28;20073;-81
2022/01/28 07:32:26;;;;;;;13.57;6.53;;;;;;;6.34;100.00;102666.16;5036153;28;20420;-81
2022/01/28 07:34:52;;;;;;;12.68;7.57;;;;;;;6.49;100.00;102669.63;5039092;28;20404;-79
2022/01/28 07:37:18;;;;;;;14.98;6.00;;;;;;;6.61;100.00;102650.09;5011469;28;20029;-81
2022/01/28 07:39:45;;;;;;;12.25;3.88;;;;;;;6.85;100.00;102657.41;5047321;28;20024;-81
2022/01/28 07:42:10;;;;;;;9.07;2.95;;;;;;;7.01;100.00;102652.69;5028911;28;20028;-80
2022/01/28 07:44:36;;;;;;;8.82;3.85;;;;;;;7.12;100.00;102643.94;5049012;28;20085;-81
2022/01/28 07:47:02;;;;;;;9.27;4.13;;;;;;;7.21;100.00;102645.97;5017031;28;20389;-82
2022/01/28 07:49:28;;;;;;;9.00;4.00;;;;;;;7.24;100.00;102643.94;5039045;28;20028;-81
2022/01/28 07:51:57;;;;;;;7.75;2.88;;;;;;;7.28;100.00;102641.91;5046956;28;20032;-81
2022/01/28 07:54:23;;;;;;;7.97;2.55;;;;;;;7.37;100.00;102646.59;5012990;28;20061;-82
2022/01/28 07:56:52;;;;;;;6.60;3.00;;;;;;;7.29;100.00;102635.59;5046377;28;20044;-81
2022/01/28 07:59:21;;;;;;;7.25;3.85;;;;;;;7.42;100.00;102639.09;5049698;28;20043;-81
2022/01/28 08:01:47;;;;;;;5.22;2.30;;;;;;;7.51;100.00;102645.63;5049227;28;20040;-82
2022/01/28 08:04:12;;;;;;;4.35;2.10;;;;;;;7.47;100.00;102636.13;5046403;28;20021;-81
2022/01/28 08:06:38;;;;;;;7.85;3.10;;;;;;;7.56;100.00;102642.63;5008867;28;20092;-83
2022/01/28 08:09:04;;;;;;;8.07;3.17;;;;;;;7.60;100.00;102642.28;5006706;28;20333;-82
2022/01/28 08:11:30;;;;;;;2.85;1.40;;;;;;;7.53;100.00;102624.09;5005597;28;20033;-82
2022/01/28 08:13:56;;;;;;;7.07;2.35;;;;;;;7.70;100.00;102637.16;5060277;28;20029;-82
2022/01/28 08:16:22;;;;;;;4.93;1.88;;;;;;;7.60;100.00;102623.56;5022682;28;20119;-83
2022/01/28 08:18:47;;;;;;;5.20;2.28;;;;;;;7.73;100.00;102642.28;5026993;28;20043;-82
2022/01/28 08:21:15;;;;;;;5.32;2.55;;;;;;;7.69;100.00;102624.69;5042147;28;20033;-83
2022/01/28 08:23:41;;;;;;;3.10;1.70;;;;;;;7.79;100.00;102649.84;5029780;28;20028;-82
2022/01/28 08:26:06;;;;;;;3.35;1.88;;;;;;;7.82;100.00;102641.59;5016673;28;20033;-82
2022/01/28 08:28:32;;;;;;;5.28;2.97;;;;;;;7.79;100.00;102631.09;5059890;28;20040;-84
2022/01/28 08:30:59;;;;;;;5.05;2.65;;;;;;;7.85;100.00;102636.00;5046253;28;20036;-83
2022/01/28 08:33:25;;;;;;;3.03;1.77;;;;;;;7.83;100.00;102632.59;5032949;28;20036;-83
2022/01/28 08:35:53;;;;;;;3.42;2.25;;;;;;;7.88;100.00;102638.44;5030754;28;20465;-83
2022/01/28 08:38:28;;;;;;;6.82;2.78;;;;;;;7.85;100.00;102638.69;5021091;28;20131;-82
2022/01/28 08:40:56;;;;;;;3.10;1.58;;;;;;;7.85;100.00;102624.44;5016532;28;20041;-83
2022/01/28 08:43:25;;;;;;;4.03;2.25;;;;;;;7.95;100.00;102640.69;5041983;28;20032;-81
2022/01/28 08:45:51;;;;;;;4.43;1.67;;;;;;;8.01;100.00;102651.81;5041287;28;20040;-82
2022/01/28 08:48:16;;;;;;;8.18;2.72;;;;;;;8.02;100.00;102639.25;5072764;28;20038;-83
2022/01/28 08:50:42;;;;;;;3.03;1.20;;;;;;;8.05;100.00;102636.38;5055559;28;20044;-83
2022/01/28 08:53:09;;;;;;;1.90;1.42;;;;;;;8.10;100.00;102647.63;5046479;28;20037;-81
2022/01/28 08:55:35;;;;;;;4.82;1.98;;;;;;;8.11;100.00;102642.13;5033545;28;20532;-83
2022/01/28 08:58:01;;;;;;;5.20;2.38;;;;;;;8.19;100.00;102649.59;5055052;28;20032;-82
2022/01/28 09:00:26;;;;;;;7.25;2.58;;;;;;;8.23;100.00;102653.78;5054160;28;20343;-83
2022/01/28 09:02:52;;;;;;;5.90;2.60;;;;;;;8.20;100.00;102643.25;5072081;28;20037;-82
2022/01/28 09:05:18;;;;;;;8.52;2.53;;;;;;;8.35;100.00;102663.56;5072061;28;20243;-82
2022/01/28 09:07:44;;;;;;;9.02;3.45;;;;;;;8.33;100.00;102653.94;5072455;28;20033;-83
2022/01/28 09:10:17;;;;;;;2.80;1.50;;;;;;;8.41;100.00;102658.75;5052266;28;20031;-82
2022/01/28 09:12:59;;;;;;;6.10;2.80;;;;;;;8.46;100.00;102664.63;5018784;28;20037;-81
2022/01/28 09:15:25;;;;;;;8.85;2.97;;;;;;;8.47;100.00;102661.00;5032989;28;20394;-82
2022/01/28 09:17:51;;;;;;;5.70;2.60;;;;;;;8.45;100.00;102657.56;5026250;28;20041;-82
2022/01/28 09:20:17;;;;;;;5.90;3.22;;;;;;;8.26;100.00;102629.44;5031175;28;20033;-82
2022/01/28 09:22:42;;;;;;;8.25;4.15;;;;;;;8.46;100.00;102648.53;5033183;28;20387;-82
2022/01/28 09:25:08;;;;;;;5.32;2.50;;;;;;;8.52;100.00;102648.06;5050408;28;20489;-83
2022/01/28 09:27:34;;;;;;;0.98;0.70;;;;;;;8.53;100.00;102636.38;5007620;28;20133;-82
2022/01/28 09:30:00;;;;;;;1.63;1.38;;;;;;;8.54;100.00;102638.09;5052754;28;20090;-82
2022/01/28 09:32:25;;;;;;;0.88;0.88;;;;;;;8.53;100.00;102629.19;5036882;28;20466;-82
2022/01/28 09:34:51;;;;;;;1.13;1.08;;;;;;;8.55;100.00;102629.94;5034210;28;20043;-81
2022/01/28 09:37:17;;;;;;;1.33;1.23;;;;;;;8.70;100.00;102635.94;5018515;28;20127;-82
2022/01/28 09:39:44;;;;;;;0.50;0.50;;;;;;;8.89;100.00;102629.16;5036923;28;20032;-82
2022/01/28 09:42:13;;;;;;;0.70;0.70;;;;;;;8.80;100.00;102604.75;5036421;28;20486;-80
2022/01/28 09:44:40;;;;;;;0.90;0.90;;;;;;;8.96;100.00;102627.72;5038257;28;20131;-81
2022/01/28 09:47:05;;;;;;;1.40;1.30;;;;;;;9.00;100.00;102615.78;5052659;28;20434;-82
2022/01/28 09:49:31;;;;;;;0.80;0.80;;;;;;;9.03;100.00;102618.22;5032308;28;20060;-82
2022/01/28 09:51:58;;;;;;;0.90;0.90;;;;;;;9.14;100.00;102618.22;5041360;28;20043;-84
2022/01/28 09:54:24;;;;;;;0.75;0.70;;;;;;;9.25;100.00;102610.16;5019138;28;20109;-81
2022/01/28 09:56:50;;;;;;;2.45;1.25;;;;;;;9.15;100.00;102613.69;5052877;28;20025;-83
2022/01/28 09:59:16;;;;;;;1.08;0.88;;;;;;;9.23;100.00;102622.00;5035766;28;20044;-81
2022/01/28 10:01:52;;;;;;;1.25;1.25;;;;;;;9.25;100.00;102612.84;5035666;28;20139;-83
2022/01/28 10:04:21;;;;;;;0.60;0.60;;;;;;;9.34;100.00;102618.47;5016885;28;20090;-80
2022/01/28 10:06:47;;;;;;;0.70;0.70;;;;;;;9.30;100.00;102617.03;5046088;28;20030;-84
2022/01/28 10:09:16;;;;;;;1.25;1.10;;;;;;;9.34;100.00;102613.09;5049935;28;20060;-82
2022/01/28 10:11:44;;;;;;;0.70;0.70;;;;;;;9.28;100.00;102608.22;5050239;28;20036;-81
2022/01/28 10:14:18;;;;;;;0.80;0.60;;;;;;;9.27;100.00;102611.91;5047985;28;20024;-82
2022/01/28 10:16:56;;;;;;;0.50;0.50;;;;;;;9.39;100.00;102625.22;5051467;28;20032;-82
2022/01/28 10:19:24;;;;;;;0.50;0.50;;;;;;;9.43;100.00;102621.28;5064349;28;20064;-82
2022/01/28 10:21:50;;;;;;;0.60;0.60;;;;;;;9.48;100.00;102626.28;5051852;28;20033;-83
2022/01/28 10:24:16;;;;;;;0.70;0.70;;;;;;;9.59;100.00;102628.97;5018726;28;20043;-81
2022/01/28 10:27:19;;;;;;;0.60;0.60;;;;;;;9.63;100.00;102603.56;5018158;28;20043;-81
2022/01/28 10:29:43;;;;;;;0.50;0.50;;;;;;;9.82;100.00;102599.38;5068479;28;20124;-81
2022/01/28 10:32:14;;;;;;;0.52;0.52;;;;;;;10.00;100.00;102619.38;5050794;28;20056;-80
2022/01/28 10:34:46;;;;;;;0.50;0.50;;;;;;;9.94;100.00;102622.53;5033841;28;20044;-81
2022/01/28 10:37:32;;;;;;;0.50;0.50;;;;;;;10.05;100.00;102621.66;5053208;28;20082;-81
2022/01/28 10:40:04;;;;;;;0.77;0.60;;;;;;;10.05;100.00;102625.19;5036216;28;20265;-81
2022/01/28 10:42:40;;;;;;;0.45;0.45;;;;;;;10.04;100.00;102623.50;5014699;28;20040;-80
2022/01/28 10:45:12;;;;;;;0.50;0.50;;;;;;;9.93;100.00;102596.66;5053119;28;20504;-81
2022/01/28 10:47:39;;;;;;;0.60;0.60;;;;;;;10.12;100.00;102614.81;5036863;28;20032;-80
2022/01/28 10:50:26;;;;;;;0.60;0.60;;;;;;;10.19;100.00;102625.88;5036704;28;20037;-81
2022/01/28 10:53:07;;;;;;;0.60;0.60;;;;;;;10.17;100.00;102617.13;5018429;28;20482;-81
2022/01/28 10:55:35;;;;;;;0.60;0.60;;;;;;;10.10;100.00;102614.06;5022017;28;20375;-81
2022/01/28 10:58:04;;;;;;;0.40;0.40;;;;;;;10.13;100.00;102619.19;5052702;28;20055;-80
2022/01/28 11:00:32;;;;;;;0.80;0.80;;;;;;;10.07;100.00;102614.31;5070087;28;20052;-81
2022/01/28 11:03:00;;;;;;;0.70;0.70;;;;;;;10.20;100.00;102619.53;5016500;28;20033;-80
2022/01/28 11:05:29;;;;;;;1.08;0.70;;;;;;;10.28;100.00;102614.41;5047329;28;20060;-81
2022/01/28 11:07:54;;;;;;;0.60;0.60;;;;;;;10.31;100.00;102612.31;5020370;28;20130;-80
2022/01/28 11:10:20;;;;;;;0.50;0.50;;;;;;;10.39;100.00;102603.59;5053456;28;20111;-79
2022/01/28 11:12:46;;;;;;;0.60;0.60;;;;;;;10.46;100.00;102599.41;5033943;28;20063;-80
2022/01/28 11:15:12;;;;;;;0.50;0.50;;;;;;;10.63;100.00;102589.91;5035301;28;20071;-80
2022/01/28 11:17:40;;;;;;;0.98;0.70;;;;;;;10.87;100.00;102613.84;5019049;28;20486;-80
2022/01/28 11:20:07;;;;;;;0.57;0.57;;;;;;;10.90;100.00;102577.75;5033047;28;20028;-79
2022/01/28 11:22:56;;;;;;;0.75;0.73;;;;;;;11.03;100.00;102596.38;5019402;28;20090;-79
2022/01/28 11:25:26;;;;;;;0.98;0.95;;;;;;;11.23;100.00;102599.03;5019268;28;20059;-79
2022/01/28 11:27:52;;;;;;;1.85;0.90;;;;;;;11.44;100.00;102588.19;5052508;28;20074;-82
2022/01/28 11:30:25;;;;;;;0.73;0.73;;;;;;;11.44;100.00;102579.25;5052212;28;20110;-81
2022/01/28 11:33:08;;;;;;;0.68;0.68;;;;;;;11.45;100.00;102589.88;5036927;28;20032;-79
2022/01/28 11:35:42;;;;;;;1.67;0.98;;;;;;;11.92;100.00;102596.56;5036159;28;20047;-80
2022/01/28 11:38:26;;;;;;;;;;;;;;;12.02;100.00;102592.88;5020143;28;20037;-79
2022/01/28 11:41:00;;;;;;;0.60;0.60;;;;;;;12.46;100.00;102595.16;5070454;28;20366;-81
2022/01/28 11:43:30;;;;;;;0.73;0.60;;;;;;;12.21;100.00;102597.44;5020193;28;20086;-80
2022/01/28 11:46:23;;;;;;;0.50;0.50;;;;;;;11.95;100.00;102590.88;5052825;28;20086;-80
2022/01/28 11:48:52;;;;;;;0.60;0.60;;;;;;;11.82;100.00;102580.34;5052086;28;20478;-80
2022/01/28 11:51:22;;;;;;;0.50;0.50;;;;;;;11.86;100.00;102590.75;5052929;28;20029;-80
2022/01/28 11:53:56;;;;;;;0.60;0.60;;;;;;;11.99;100.00;102595.88;5052828;28;20032;-80
2022/01/28 11:56:25;;;;;;;0.50;0.50;;;;;;;11.99;100.00;102592.31;5052486;28;20101;-80
2022/01/28 11:59:09;;;;;;;0.70;0.65;;;;;;;12.09;100.00;102595.84;5051925;28;20102;-80
2022/01/28 12:01:38;;;;;;;0.95;0.85;;;;;;;12.08;100.00;102592.31;5031809;28;20036;-81
2022/01/28 12:07:03;;;;;;;0.65;0.65;;;;;;;11.90;100.00;102590.47;5070366;28;20105;-80
2022/01/28 12:09:30;;;;;;;0.47;0.47;;;;;;;11.97;100.00;102605.09;5051704;28;20044;-81
2022/01/28 12:11:57;;;;;;;0.50;0.50;;;;;;;11.77;100.00;102571.81;5065960;28;20044;-80
2022/01/28 12:14:52;;;;;;;0.63;0.63;;;;;;;11.78;100.00;102587.00;5056932;28;20036;-79
2022/01/28 12:17:34;;;;;;;0.50;0.50;;;;;;;11.50;100.00;102585.94;5024712;28;20044;-81
2022/01/28 12:20:15;;;;;;;0.40;0.40;;;;;;;11.27;100.00;102586.13;5051643;28;20036;-80
2022/01/28 12:22:59;;;;;;;0.50;0.50;;;;;;;11.31;100.00;102592.13;5071503;28;20033;-80
2022/01/28 12:25:37;;;;;;;0.40;0.40;;;;;;;11.28;100.00;102577.06;5039981;28;20165;-80
2022/01/28 12:28:15;;;;;;;0.50;0.50;;;;;;;11.40;100.00;102596.66;5055860;28;20044;-80
2022/01/28 12:31:15;;;;;;;0.50;0.50;;;;;;;11.38;100.00;102569.88;5073391;28;20036;-81
2022/01/28 12:33:46;;;;;;;0.60;0.60;;;;;;;11.35;100.00;102561.22;5028939;28;20486;-81
2022/01/28 12:36:23;;;;;;;0.50;0.50;;;;;;;11.45;100.00;102571.03;5039390;28;20024;-81
2022/01/28 12:39:00;;;;;;;0.50;0.50;;;;;;;11.54;100.00;102555.91;5021432;28;20094;-81
2022/01/28 12:41:29;;;;;;;0.45;0.45;;;;;;;11.44;100.00;102553.16;5055083;28;20111;-81
2022/01/28 12:43:54;;;;;;;0.50;0.50;;;;;;;11.06;100.00;102534.19;5056190;28;20031;-80
2022/01/28 12:46:21;;;;;;;0.50;0.50;;;;;;;11.16;100.00;102549.38;5073946;28;20029;-81
2022/01/28 12:48:51;;;;;;;0.47;0.45;;;;;;;11.04;100.00;102563.09;5055349;28;20062;-81
2022/01/28 12:51:17;;;;;;;0.55;0.50;;;;;;;10.97;100.00;102566.31;5041431;28;20087;-81
2022/01/28 12:53:45;;;;;;;0.40;0.40;;;;;;;10.90;100.00;102566.97;5039088;28;20071;-81
2022/01/28 12:56:12;;;;;;;0.43;0.43;;;;;;;11.11;100.00;102570.47;5055870;28;20050;-80
2022/01/28 12:58:45;;;;;;;0.50;0.50;;;;;;;11.54;100.00;102566.69;5038830;28;20029;-82